Time;durP1;ratioP1;P1;durP2;ratioP2;P2;SDS_P1;SDS_P2;PMS_P1;PMS_P2;Temp;Humidity;BMP_temperature;BMP_pressure;BME280_temperature;BME280_humidity;BME280_pressure;Samples;Min_cycle;Max_cycle;Signal;HPM_P1;HPM_P2
2022/05/03 00:02:05;;;;;;;5.90;2.00;;;;;;;9.14;61.04;98681.25;105137;1271;75639;-27
2022/05/03 00:04:53;;;;;;;3.50;2.40;;;;;;;9.28;60.54;98680.69;104925;1271;75776;-27
2022/05/03 00:07:24;;;;;;;2.80;2.00;;;;;;;9.37;60.42;98680.20;104988;1271;74436;-27
2022/05/03 00:09:58;;;;;;;3.60;2.00;;;;;;;9.39;60.53;98678.23;105038;1271;61128;-27
2022/05/03 00:12:45;;;;;;;5.60;2.40;;;;;;;9.42;60.23;98676.96;105029;1271;61028;-27
2022/05/03 00:15:12;;;;;;;3.10;1.90;;;;;;;9.44;60.04;98676.99;105175;1272;74497;-25
2022/05/03 00:17:40;;;;;;;3.20;2.00;;;;;;;9.35;60.11;98675.56;105153;1271;76156;-25
2022/05/03 00:20:08;;;;;;;7.10;2.30;;;;;;;9.22;60.70;98674.37;104903;1271;74315;-27
2022/05/03 00:22:35;;;;;;;3.50;2.10;;;;;;;9.07;61.23;98671.65;104899;1271;62188;-27
2022/05/03 00:25:03;;;;;;;3.70;2.10;;;;;;;8.88;62.23;98674.02;104956;1271;61114;-27
2022/05/03 00:27:31;;;;;;;5.10;2.50;;;;;;;8.69;62.90;98673.07;105105;1271;74527;-28
2022/05/03 00:29:58;;;;;;;2.90;2.20;;;;;;;8.57;63.34;98671.27;105083;1271;75860;-27
2022/05/03 00:32:26;;;;;;;2.60;2.10;;;;;;;8.47;64.10;98671.11;104970;1271;74209;-26
2022/05/03 00:34:54;;;;;;;4.40;1.80;;;;;;;8.43;64.71;98669.40;105194;1271;62566;-28
2022/05/03 00:37:21;;;;;;;9.20;1.90;;;;;;;8.92;64.70;98666.36;104979;1271;61876;-27
2022/05/03 00:39:48;;;;;;;4.20;2.00;;;;;;;9.51;63.32;98665.61;105014;1271;75560;-28
2022/05/03 00:42:18;;;;;;;4.70;2.60;;;;;;;9.63;62.78;98661.70;105075;1271;75990;-27
2022/05/03 00:45:00;;;;;;;3.10;2.10;;;;;;;9.56;62.56;98664.38;105093;1271;74321;-27
2022/05/03 00:47:39;;;;;;;6.30;2.10;;;;;;;9.35;63.12;98662.03;105043;1274;61008;-27
2022/05/03 00:50:25;;;;;;;3.30;2.00;;;;;;;9.15;62.56;98665.48;105021;1271;61082;-27
2022/05/03 00:52:56;;;;;;;2.70;1.70;;;;;;;9.06;61.60;98661.34;105046;1271;75636;-26
2022/05/03 00:55:57;;;;;;;3.80;1.80;;;;;;;9.07;61.20;98666.77;104801;1272;76021;-26
2022/05/03 00:58:37;;;;;;;4.30;1.90;;;;;;;9.01;62.89;98662.42;105204;1271;74374;-26
2022/05/03 01:01:05;;;;;;;4.20;2.00;;;;;;;8.87;62.50;98660.59;105131;1271;61140;-26
2022/05/03 01:04:00;;;;;;;3.00;1.90;;;;;;;8.75;62.14;98658.41;105013;1271;61916;-26
2022/05/03 01:06:49;;;;;;;3.10;2.00;;;;;;;8.64;62.61;98658.23;104876;1271;74089;-26
2022/05/03 01:09:44;;;;;;;5.00;2.50;;;;;;;8.56;63.66;98654.60;104876;1272;76061;-26
2022/05/03 01:12:24;;;;;;;4.00;2.40;;;;;;;8.43;64.38;98651.02;104654;1271;74264;-26
2022/05/03 01:15:18;;;;;;;3.40;2.40;;;;;;;8.33;64.89;98650.12;104926;1271;61054;-26
2022/05/03 01:18:07;;;;;;;2.50;2.30;;;;;;;8.22;65.42;98650.23;105069;1271;61132;-26
2022/05/03 01:21:04;;;;;;;5.80;1.90;;;;;;;8.18;66.15;98650.21;105156;1271;75662;-27
2022/05/03 01:23:50;;;;;;;4.00;2.10;;;;;;;8.94;64.93;98650.67;104874;1272;76039;-26
2022/05/03 01:26:27;;;;;;;3.90;2.50;;;;;;;9.37;63.37;98651.00;105123;1271;74267;-26
2022/05/03 01:29:24;;;;;;;3.80;2.60;;;;;;;9.35;63.06;98649.73;105145;1271;61248;-27
2022/05/03 01:31:53;;;;;;;3.40;2.10;;;;;;;9.19;63.18;98649.36;105173;1273;62326;-26
2022/05/03 01:34:20;;;;;;;6.80;2.30;;;;;;;9.03;63.36;98650.48;105168;1271;74516;-26
2022/05/03 01:37:00;;;;;;;3.60;2.00;;;;;;;8.86;63.66;98647.83;105161;1273;76025;-26
2022/05/03 01:39:49;;;;;;;3.00;2.00;;;;;;;8.70;63.90;98648.05;105201;1270;74436;-26
2022/05/03 01:42:22;;;;;;;3.40;2.10;;;;;;;8.60;63.67;98647.70;105173;1271;61809;-25
2022/05/03 01:45:09;;;;;;;3.40;2.10;;;;;;;8.56;63.28;98642.29;105275;1271;61129;-27
2022/05/03 01:47:45;;;;;;;4.70;2.20;;;;;;;8.56;63.04;98642.98;105138;1271;74143;-25
2022/05/03 01:50:30;;;;;;;3.10;2.20;;;;;;;8.54;62.76;98643.60;104814;1271;75982;-25
2022/05/03 01:53:21;;;;;;;2.80;2.20;;;;;;;8.57;62.47;98644.14;104810;1269;74484;-26
2022/05/03 01:56:20;;;;;;;4.60;2.20;;;;;;;8.62;61.66;98643.34;105129;1271;61189;-26
2022/05/03 01:59:29;;;;;;;4.00;2.00;;;;;;;8.71;61.50;98641.81;104982;1271;61066;-26
2022/05/03 02:01:59;;;;;;;4.70;2.00;;;;;;;8.63;61.60;98643.60;105245;1270;75369;-26
2022/05/03 02:04:45;;;;;;;3.40;1.90;;;;;;;8.57;61.27;98644.61;105171;1271;74841;-25
2022/05/03 02:07:25;;;;;;;4.40;2.10;;;;;;;8.59;61.12;98641.52;105017;1271;74362;-27
2022/05/03 02:10:13;;;;;;;5.50;2.00;;;;;;;8.59;61.65;98640.13;104928;1274;62078;-25
2022/05/03 02:12:41;;;;;;;3.60;2.70;;;;;;;8.50;62.77;98638.20;104807;1271;61778;-26
2022/05/03 02:15:12;;;;;;;3.80;2.80;;;;;;;8.40;63.35;98639.55;104847;1271;75777;-25
2022/05/03 02:18:05;;;;;;;4.60;2.60;;;;;;;8.30;64.15;98639.10;104983;1271;75851;-25
2022/05/03 02:20:59;;;;;;;2.30;1.70;;;;;;;8.29;64.66;98639.30;104852;1271;74475;-25
2022/05/03 02:23:54;;;;;;;2.80;2.00;;;;;;;9.05;62.67;98635.73;104872;1271;61134;-25
2022/05/03 02:26:24;;;;;;;2.90;2.00;;;;;;;9.58;60.80;98635.92;105386;1271;61158;-25
2022/05/03 02:28:54;;;;;;;4.50;2.20;;;;;;;9.62;60.48;98634.21;105009;1271;75402;-26
2022/05/03 02:31:41;;;;;;;3.90;2.10;;;;;;;9.51;60.62;98633.20;104866;1271;75968;-25
2022/05/03 02:34:30;;;;;;;4.00;2.30;;;;;;;9.35;60.92;98631.95;104831;1271;74361;-25
2022/05/03 02:37:17;;;;;;;3.20;2.30;;;;;;;9.18;61.45;98635.23;105013;1271;61228;-26
2022/05/03 02:39:57;;;;;;;4.20;2.20;;;;;;;9.03;61.49;98635.42;104830;1274;61982;-26
2022/05/03 02:42:24;;;;;;;3.90;1.90;;;;;;;8.98;61.46;98634.95;105033;1274;73796;-27
2022/05/03 02:44:55;;;;;;;4.60;2.30;;;;;;;8.96;61.32;98633.55;104871;1271;313372;-27
2022/05/03 02:47:50;;;;;;;3.40;2.20;;;;;;;8.91;62.06;98637.74;105148;1271;74569;-26
2022/05/03 02:50:29;;;;;;;4.80;2.30;;;;;;;8.75;62.40;98634.67;105099;1271;61027;-26
2022/05/03 02:53:06;;;;;;;7.80;2.40;;;;;;;8.62;62.50;98634.85;105188;1271;61137;-27
2022/05/03 02:55:54;;;;;;;4.30;2.50;;;;;;;8.54;62.96;98633.98;105025;1271;75372;-26
2022/05/03 02:58:51;;;;;;;4.80;2.40;;;;;;;8.45;63.57;98638.23;104963;1271;75941;-26
2022/05/03 03:01:47;;;;;;;4.00;2.20;;;;;;;8.43;63.36;98638.08;104933;1271;74385;-26
2022/05/03 03:04:34;;;;;;;2.70;1.90;;;;;;;8.51;63.10;98635.94;104878;1271;61109;-27
2022/05/03 03:07:03;;;;;;;5.10;3.20;;;;;;;8.63;62.90;98638.76;104771;1272;61799;-26
2022/05/03 03:09:44;;;;;;;4.60;2.10;;;;;;;8.76;65.04;98635.53;104960;1271;75504;-26
2022/05/03 03:12:36;;;;;;;5.40;2.30;;;;;;;9.56;64.44;98638.02;104837;1271;75045;-26
2022/05/03 03:15:06;;;;;;;12.10;3.00;;;;;;;10.55;61.83;98641.59;105170;1271;73153;-27
2022/05/03 03:17:46;;;;;;;4.50;2.90;;;;;;;10.93;61.77;98642.08;105161;1271;61235;-27
2022/05/03 03:20:14;;;;;;;9.20;4.10;;;;;;;10.92;61.55;98639.08;105115;1271;60994;-27
2022/05/03 03:22:46;;;;;;;6.70;4.00;;;;;;;10.98;60.93;98632.46;104817;1272;75721;-26
2022/05/03 03:25:17;;;;;;;9.70;4.50;;;;;;;11.11;60.78;98635.80;104758;1271;75118;-26
2022/05/03 03:27:47;;;;;;;12.70;4.70;;;;;;;11.23;61.26;98631.65;104804;1271;74466;-27
2022/05/03 03:30:20;;;;;;;5.60;3.70;;;;;;;11.30;60.98;98627.99;104756;1272;61145;-27
2022/05/03 03:32:56;;;;;;;7.20;4.00;;;;;;;11.29;59.67;98628.73;105003;1271;62047;-26
2022/05/03 03:35:24;;;;;;;10.30;4.50;;;;;;;11.26;57.66;98624.55;104777;1271;75483;-27
2022/05/03 03:37:51;;;;;;;8.20;4.50;;;;;;;11.24;58.74;98624.53;104933;1270;74943;-27
2022/05/03 03:40:19;;;;;;;7.50;5.40;;;;;;;11.28;59.81;98629.05;104983;1271;74311;-27
2022/05/03 03:42:46;;;;;;;5.00;3.30;;;;;;;11.29;59.95;98626.74;104845;1271;61138;-26
2022/05/03 03:45:16;;;;;;;9.00;4.20;;;;;;;11.25;59.02;98622.42;105005;1271;61083;-27
2022/05/03 03:47:44;;;;;;;6.30;4.30;;;;;;;11.16;60.42;98621.14;104784;1271;73634;-26
2022/05/03 03:50:11;;;;;;;7.00;4.90;;;;;;;11.04;61.97;98620.59;104745;1272;76388;-26
2022/05/03 03:52:41;;;;;;;10.80;4.30;;;;;;;10.89;62.74;98631.64;104943;1271;74454;-26
2022/05/03 03:55:12;;;;;;;7.60;3.90;;;;;;;10.81;61.95;98635.01;104789;1270;62383;-26
2022/05/03 03:57:39;;;;;;;6.20;3.40;;;;;;;10.75;61.68;98641.04;104763;1271;62279;-26
2022/05/03 04:00:09;;;;;;;5.30;2.30;;;;;;;10.68;60.76;98646.15;105307;1271;75446;-26
2022/05/03 04:02:42;;;;;;;4.90;2.60;;;;;;;10.69;58.50;98637.75;104897;1271;76098;-26
2022/05/03 04:05:23;;;;;;;2.80;2.10;;;;;;;10.80;57.32;98639.07;104845;1271;74566;-27
2022/05/03 04:07:50;;;;;;;2.90;2.20;;;;;;;11.00;56.02;98634.55;104765;1273;61154;-26
2022/05/03 04:10:18;;;;;;;2.90;2.50;;;;;;;11.11;55.54;98633.52;104775;1272;61161;-26
2022/05/03 04:12:46;;;;;;;5.40;2.00;;;;;;;11.22;55.19;98627.85;104917;1271;75390;-26
2022/05/03 04:15:13;;;;;;;3.40;2.50;;;;;;;11.45;53.71;98626.84;104937;1271;76055;-26
2022/05/03 04:17:43;;;;;;;4.00;1.90;;;;;;;11.73;52.59;98626.15;104835;1270;74884;-26
2022/05/03 04:20:15;;;;;;;3.70;2.10;;;;;;;11.96;52.05;98622.33;104851;1271;62121;-26
2022/05/03 04:22:42;;;;;;;3.40;2.40;;;;;;;12.12;50.81;98625.34;104853;1274;61923;-26
2022/05/03 04:25:10;;;;;;;2.70;2.10;;;;;;;12.23;51.18;98627.08;105058;1271;75546;-24
2022/05/03 04:27:37;;;;;;;3.60;2.40;;;;;;;12.28;51.42;98628.77;105125;1271;76078;-25
2022/05/03 04:30:05;;;;;;;3.40;2.00;;;;;;;12.30;51.64;98628.57;105380;1271;74208;-25
2022/05/03 04:32:33;;;;;;;2.20;2.00;;;;;;;12.31;51.23;98623.59;105021;1271;61108;-26
2022/05/03 04:35:01;;;;;;;2.50;2.10;;;;;;;12.35;51.74;98626.81;104880;1271;61991;-28
2022/05/03 04:37:28;;;;;;;4.10;2.10;;;;;;;12.33;52.77;98628.46;104972;1269;75442;-26
2022/05/03 04:39:55;;;;;;;3.70;2.80;;;;;;;12.30;53.01;98629.60;104922;1271;76039;-27
2022/05/03 04:42:23;;;;;;;4.00;2.40;;;;;;;12.28;52.74;98628.77;105073;1271;74308;-28
2022/05/03 04:44:50;;;;;;;3.20;2.20;;;;;;;12.29;53.17;98632.44;105240;1271;61166;-28
2022/05/03 04:47:17;;;;;;;5.30;2.50;;;;;;;12.33;52.90;98639.58;105206;1271;61049;-27
2022/05/03 04:49:47;;;;;;;5.60;2.30;;;;;;;12.38;53.17;98645.41;104946;1271;75586;-28
2022/05/03 04:52:15;;;;;;;2.50;2.20;;;;;;;12.42;53.09;98644.77;104903;1271;75963;-27
2022/05/03 04:54:42;;;;;;;3.00;2.30;;;;;;;12.50;52.72;98649.63;104938;1271;74400;-27
2022/05/03 04:57:10;;;;;;;2.90;2.20;;;;;;;12.56;52.85;98649.42;104798;1271;61070;-28
2022/05/03 04:59:38;;;;;;;3.20;2.40;;;;;;;12.57;52.52;98645.10;105037;1271;61048;-27
2022/05/03 05:02:05;;;;;;;2.80;2.30;;;;;;;12.61;52.46;98642.78;105391;1271;75694;-28
2022/05/03 05:04:33;;;;;;;2.70;2.30;;;;;;;12.63;52.86;98639.80;105365;1271;75792;-25
2022/05/03 05:07:00;;;;;;;5.60;2.70;;;;;;;12.70;53.41;98638.16;105165;1271;74143;-28
2022/05/03 05:09:28;;;;;;;7.90;2.50;;;;;;;12.79;53.10;98638.67;105381;1271;61108;-27
2022/05/03 05:11:57;;;;;;;4.80;2.40;;;;;;;12.93;53.46;98640.09;105387;1271;61577;-26
2022/05/03 05:14:24;;;;;;;5.70;2.70;;;;;;;13.11;53.97;98639.79;105397;1271;76951;-26
2022/05/03 05:16:51;;;;;;;3.00;2.40;;;;;;;13.25;52.78;98636.84;105069;1271;75947;-26
2022/05/03 05:19:18;;;;;;;4.80;2.40;;;;;;;13.39;51.86;98629.20;105028;1271;74589;-26
2022/05/03 05:21:46;;;;;;;4.20;2.60;;;;;;;13.48;51.15;98630.89;105188;1271;61143;-25
2022/05/03 05:24:13;;;;;;;5.00;2.70;;;;;;;13.50;50.93;98629.81;105204;1271;61150;-26
2022/05/03 05:26:41;;;;;;;3.20;2.30;;;;;;;13.65;50.79;98633.96;105144;1271;75553;-26
2022/05/03 05:29:09;;;;;;;5.70;2.20;;;;;;;13.82;50.65;98637.77;105113;1271;75903;-26
2022/05/03 05:31:37;;;;;;;3.70;2.30;;;;;;;14.08;50.44;98637.81;104945;1271;74182;-26
2022/05/03 05:34:04;;;;;;;3.10;2.20;;;;;;;14.26;49.93;98641.85;105009;1271;62329;-28
2022/05/03 05:36:31;;;;;;;4.40;2.30;;;;;;;14.45;49.15;98641.54;104991;1269;61289;-26
2022/05/03 05:39:00;;;;;;;4.80;2.30;;;;;;;14.65;47.66;98641.02;104828;1271;74386;-26
2022/05/03 05:41:27;;;;;;;3.40;2.30;;;;;;;14.82;48.24;98644.02;104975;1270;77635;-26
2022/05/03 05:43:54;;;;;;;5.20;2.60;;;;;;;14.96;50.25;98648.09;105175;1271;74405;-26
2022/05/03 05:46:23;;;;;;;7.40;2.90;;;;;;;14.98;49.50;98643.77;104943;1271;61082;-26
2022/05/03 05:48:53;;;;;;;3.40;2.40;;;;;;;15.15;49.60;98645.92;104861;1271;61242;-25
2022/05/03 05:51:20;;;;;;;3.00;2.20;;;;;;;15.46;49.01;98645.27;105041;1271;73386;-26
2022/05/03 05:53:47;;;;;;;3.50;2.20;;;;;;;15.83;48.52;98645.17;105006;1271;75935;-26
2022/05/03 05:56:14;;;;;;;3.60;2.10;;;;;;;16.31;47.76;98650.94;105298;1271;74478;-25
2022/05/03 05:58:46;;;;;;;5.00;2.30;;;;;;;16.78;45.84;98650.06;105004;1271;61179;-25
2022/05/03 06:01:14;;;;;;;5.10;1.80;;;;;;;17.08;45.12;98650.40;105242;1271;61121;-26
2022/05/03 06:03:43;;;;;;;3.00;1.90;;;;;;;17.23;44.18;98653.39;105403;1271;75406;-26
2022/05/03 06:06:10;;;;;;;3.00;1.90;;;;;;;17.32;42.07;98647.27;105363;1271;75807;-26
2022/05/03 06:08:38;;;;;;;11.10;2.40;;;;;;;17.43;41.32;98648.80;105352;1271;74225;-25
2022/05/03 06:11:05;;;;;;;2.40;1.70;;;;;;;17.52;41.54;98649.14;105187;1271;62825;-26
2022/05/03 06:13:33;;;;;;;6.10;2.20;;;;;;;17.33;39.71;98653.44;104796;1272;61939;-26
2022/05/03 06:16:09;;;;;;;3.90;1.90;;;;;;;17.23;41.08;98652.79;104983;1271;75582;-26
2022/05/03 06:18:37;;;;;;;2.70;2.00;;;;;;;17.14;40.47;98650.95;104785;1271;76300;-26
2022/05/03 06:21:08;;;;;;;2.30;2.00;;;;;;;17.32;40.35;98650.25;105284;1269;74384;-26
2022/05/03 06:23:36;;;;;;;2.70;2.20;;;;;;;17.53;40.71;98653.41;104835;1271;61106;-24
2022/05/03 06:26:06;;;;;;;3.20;2.70;;;;;;;17.60;39.07;98652.98;105023;1271;61664;-25
2022/05/03 06:28:43;;;;;;;4.60;1.90;;;;;;;17.61;40.52;98652.96;104809;1271;74582;-26
2022/05/03 06:31:11;;;;;;;3.20;2.40;;;;;;;17.87;41.41;98644.52;104890;1271;76157;-24
2022/05/03 06:33:38;;;;;;;3.30;2.00;;;;;;;18.05;41.54;98650.76;104941;1270;74396;-25
2022/05/03 06:36:15;;;;;;;2.90;2.10;;;;;;;18.21;41.55;98651.98;104970;1271;61182;-24
2022/05/03 06:38:42;;;;;;;3.40;2.30;;;;;;;18.45;40.68;98654.22;105035;1271;61211;-24
2022/05/03 06:41:10;;;;;;;2.70;1.90;;;;;;;18.70;38.59;98648.71;104817;1271;75491;-25
2022/05/03 06:43:37;;;;;;;3.40;2.10;;;;;;;18.90;36.24;98653.13;105002;1270;75884;-25
2022/05/03 06:46:04;;;;;;;4.10;2.30;;;;;;;18.88;35.62;98656.23;104964;1271;73806;-25
2022/05/03 06:48:32;;;;;;;3.00;2.30;;;;;;;18.88;35.58;98652.58;104954;1271;61131;-25
2022/05/03 06:50:59;;;;;;;4.40;2.40;;;;;;;18.50;36.23;98650.28;105013;1271;61108;-26
2022/05/03 06:53:26;;;;;;;3.30;2.20;;;;;;;18.61;37.37;98649.42;104966;1271;76107;-25
2022/05/03 06:55:53;;;;;;;4.70;2.10;;;;;;;18.69;36.83;98651.45;105242;1271;75828;-26
2022/05/03 06:58:22;;;;;;;3.00;1.90;;;;;;;18.87;36.83;98653.00;105366;1271;74723;-26
2022/05/03 07:00:49;;;;;;;3.60;2.30;;;;;;;18.89;37.14;98654.73;105105;1270;61127;-26
2022/05/03 07:03:19;;;;;;;3.80;2.10;;;;;;;18.79;37.41;98654.29;104957;1271;61198;-27
2022/05/03 07:05:48;;;;;;;2.70;1.80;;;;;;;18.95;37.13;98656.30;105101;1271;75624;-26
2022/05/03 07:08:15;;;;;;;4.30;2.20;;;;;;;19.24;36.92;98653.92;105277;1271;75994;-26
2022/05/03 07:10:44;;;;;;;3.50;2.30;;;;;;;19.44;37.00;98653.73;105036;1270;74323;-29
2022/05/03 07:13:13;;;;;;;9.80;2.40;;;;;;;19.47;36.34;98652.88;105040;1271;61163;-27
2022/05/03 07:15:40;;;;;;;4.90;1.90;;;;;;;19.17;36.97;98655.20;104854;1271;61212;-28
2022/05/03 07:23:39;;;;;;;1.40;1.20;;;;;;;18.93;39.35;98652.83;104918;1270;73327;-28
2022/05/03 07:26:06;;;;;;;5.40;2.70;;;;;;;18.88;37.90;98655.05;104992;1271;62259;-30
2022/05/03 07:28:33;;;;;;;2.80;2.00;;;;;;;18.81;37.04;98658.44;104957;1269;61150;-28
2022/05/03 07:31:00;;;;;;;2.50;2.30;;;;;;;18.61;36.22;98655.84;105178;1271;75480;-30
2022/05/03 07:35:23;;;;;;;3.80;2.50;;;;;;;18.87;35.99;98661.64;102957;1294;615268;-29
2022/05/03 07:37:51;;;;;;;3.00;2.30;;;;;;;19.24;35.11;98659.60;104432;1284;61087;-26
2022/05/03 07:40:18;;;;;;;6.30;2.00;;;;;;;19.43;35.72;98655.80;104403;1284;61040;-28
2022/05/03 07:42:46;;;;;;;3.00;2.00;;;;;;;19.48;36.05;98657.30;104413;1284;73730;-28
2022/05/03 07:45:13;;;;;;;4.00;2.30;;;;;;;19.60;35.06;98657.03;104111;1284;76006;-29
2022/05/03 07:47:40;;;;;;;2.60;2.10;;;;;;;19.60;34.58;98654.49;104076;1284;375365;-27
2022/05/03 07:50:08;;;;;;;3.80;2.10;;;;;;;19.68;33.90;98657.27;104507;1281;60952;-27
2022/05/03 07:52:36;;;;;;;2.60;2.00;;;;;;;19.83;34.11;98650.66;104102;1283;61217;-29
2022/05/03 07:55:06;;;;;;;7.00;2.40;;;;;;;19.63;35.14;98655.82;104294;1281;73915;-28
2022/05/03 07:57:33;;;;;;;3.40;2.10;;;;;;;19.79;34.55;98657.33;104394;1281;76017;-29
2022/05/03 08:00:04;;;;;;;3.80;2.00;;;;;;;20.15;33.51;98653.92;104550;1281;74394;-28
2022/05/03 08:02:31;;;;;;;5.30;2.20;;;;;;;20.25;33.68;98650.02;104501;1284;61988;-29
2022/05/03 08:04:59;;;;;;;6.00;2.50;;;;;;;20.26;33.47;98646.45;104601;1281;61788;-31
2022/05/03 08:07:26;;;;;;;6.70;2.20;;;;;;;20.41;34.16;98650.38;104456;1281;74890;-28
2022/05/03 08:09:54;;;;;;;2.50;1.80;;;;;;;20.71;33.06;98646.56;104160;1281;75861;-26
2022/05/03 08:12:22;;;;;;;5.40;2.30;;;;;;;20.84;33.42;98651.04;104135;1281;74181;-26
2022/05/03 08:14:49;;;;;;;4.70;2.30;;;;;;;20.78;33.04;98648.98;104197;1281;61155;-27
2022/05/03 08:17:17;;;;;;;4.20;2.30;;;;;;;20.88;33.81;98649.98;104214;1281;61678;-26
2022/05/03 08:19:44;;;;;;;4.30;2.20;;;;;;;21.02;34.24;98646.73;103916;1281;74723;-25
2022/05/03 08:22:11;;;;;;;3.60;2.20;;;;;;;21.29;34.61;98644.13;104083;1283;76232;-25
2022/05/03 08:24:39;;;;;;;2.50;1.90;;;;;;;21.48;33.24;98642.97;104056;1281;74337;-25
2022/05/03 08:27:07;;;;;;;5.40;2.30;;;;;;;21.68;31.07;98641.24;104172;1281;61140;-25
2022/05/03 08:29:35;;;;;;;3.60;2.60;;;;;;;21.44;31.09;98641.10;104243;1280;61858;-25
2022/05/03 08:32:03;;;;;;;5.60;2.60;;;;;;;21.30;31.74;98640.66;104295;1281;74871;-25
2022/05/03 08:34:31;;;;;;;3.60;2.20;;;;;;;21.04;30.21;98645.97;103984;1281;74961;-26
2022/05/03 08:42:30;;;;;;;5.20;2.20;;;;;;;22.09;29.82;98628.43;104269;1281;61021;-27
2022/05/03 08:44:59;;;;;;;3.10;2.00;;;;;;;22.23;31.40;98627.63;104241;1281;74715;-27
2022/05/03 08:47:28;;;;;;;7.60;2.30;;;;;;;22.06;30.13;98620.48;104248;1281;76287;-27
2022/05/03 08:50:08;;;;;;;5.90;2.30;;;;;;;22.13;30.04;98617.20;103967;1281;74385;-26
2022/05/03 08:52:49;;;;;;;2.60;1.80;;;;;;;22.13;30.07;98612.02;104146;1281;62129;-27
2022/05/03 08:55:17;;;;;;;7.20;2.40;;;;;;;21.93;29.12;98612.83;104385;1281;62023;-26
2022/05/03 08:57:45;;;;;;;3.40;2.10;;;;;;;21.89;28.37;98614.55;104097;1281;75012;-27
2022/05/03 09:00:14;;;;;;;3.60;2.30;;;;;;;21.74;27.93;98615.91;104160;1281;76023;-27
2022/05/03 09:02:54;;;;;;;3.70;2.30;;;;;;;21.63;28.61;98617.58;103805;1281;74401;-28
2022/05/03 09:05:22;;;;;;;4.20;2.40;;;;;;;21.49;30.65;98617.06;104156;1281;61281;-27
2022/05/03 09:07:51;;;;;;;6.50;2.80;;;;;;;20.98;31.80;98615.02;104229;1281;61285;-27
2022/05/03 09:10:28;;;;;;;5.80;2.70;;;;;;;20.62;33.03;98612.98;104085;1281;74788;-27
2022/05/03 09:13:11;;;;;;;4.00;2.40;;;;;;;20.28;33.36;98613.25;104130;1281;75944;-27
2022/05/03 09:15:39;;;;;;;7.40;2.40;;;;;;;19.64;33.55;98610.15;103814;1281;74223;-27
2022/05/03 09:18:06;;;;;;;10.90;4.70;;;;;;;19.26;35.38;98613.66;104291;1278;61150;-25
2022/05/03 09:26:26;;;;;;;4.00;2.70;;;;;;;18.66;36.79;98613.70;104330;1278;75954;-25
2022/05/03 09:28:55;;;;;;;3.60;2.10;;;;;;;18.53;37.50;98610.90;104341;1278;74635;-26
2022/05/03 09:31:39;;;;;;;2.40;2.00;;;;;;;18.42;36.93;98606.98;104213;1280;61130;-27
2022/05/03 09:34:23;;;;;;;7.90;2.40;;;;;;;18.40;35.94;98605.45;104573;1281;62309;-25
2022/05/03 09:36:51;;;;;;;3.50;2.50;;;;;;;18.40;37.42;98596.52;104609;1277;74618;-25
2022/05/03 09:39:38;;;;;;;4.70;2.10;;;;;;;18.35;38.93;98592.90;104551;1278;75942;-26
2022/05/03 09:42:06;;;;;;;3.20;2.10;;;;;;;18.27;35.89;98590.48;104347;1278;73511;-26
2022/05/03 09:44:37;;;;;;;2.80;2.10;;;;;;;19.02;36.31;98590.65;104495;1278;61130;-25
2022/05/03 09:47:11;;;;;;;2.80;1.70;;;;;;;19.84;34.99;98583.86;104322;1277;61128;-26
2022/05/03 09:49:40;;;;;;;2.10;1.60;;;;;;;20.19;32.92;98578.91;104578;1278;73693;-25
2022/05/03 09:52:30;;;;;;;2.30;1.80;;;;;;;20.28;31.21;98579.22;104352;1278;76027;-26
2022/05/03 09:55:03;;;;;;;5.00;1.90;;;;;;;20.10;31.52;98573.84;104554;1278;74372;-26
2022/05/03 09:57:32;;;;;;;9.90;1.90;;;;;;;19.94;31.85;98576.22;104532;1277;61127;-27
2022/05/03 09:59:59;;;;;;;3.30;2.10;;;;;;;19.94;31.81;98571.66;104577;1281;62216;-26
2022/05/03 10:02:28;;;;;;;3.30;2.00;;;;;;;19.90;30.57;98568.11;104656;1277;74728;-26
2022/05/03 10:04:56;;;;;;;3.30;2.10;;;;;;;19.98;29.93;98563.32;104324;1278;75956;-26
2022/05/03 10:07:24;;;;;;;4.60;1.90;;;;;;;20.14;31.41;98562.79;104303;1278;73250;-27
2022/05/03 10:09:53;;;;;;;3.50;1.90;;;;;;;20.14;31.63;98561.13;104276;1278;61223;-27
2022/05/03 10:12:21;;;;;;;10.40;2.00;;;;;;;20.06;32.40;98559.77;104307;1281;61966;-26
2022/05/03 10:14:48;;;;;;;3.50;1.80;;;;;;;20.00;30.64;98555.56;104629;1277;74649;-26
2022/05/03 10:20:42;;;;;;;3.10;1.80;;;;;;;19.85;30.55;98549.15;104271;1281;74252;-27
2022/05/03 10:23:28;;;;;;;3.00;1.90;;;;;;;19.80;31.15;98546.23;104221;1278;61115;-27
2022/05/03 10:25:56;;;;;;;5.70;1.70;;;;;;;19.59;29.90;98544.06;104312;1278;62085;-27
2022/05/03 10:28:24;;;;;;;33.20;3.70;;;;;;;20.22;30.43;98542.67;104390;1278;74624;-27
2022/05/03 10:31:13;;;;;;;5.60;1.90;;;;;;;21.14;29.55;98541.45;104418;1278;75796;-26
2022/05/03 10:33:42;;;;;;;3.60;1.90;;;;;;;21.87;28.17;98536.25;104636;1278;73524;-26
2022/05/03 10:36:42;;;;;;;2.80;2.10;;;;;;;22.03;27.54;98534.21;104525;1277;61112;-26
2022/05/03 10:39:20;;;;;;;2.60;1.70;;;;;;;21.43;26.86;98527.84;104095;1278;61118;-28
2022/05/03 10:41:54;;;;;;;4.10;2.00;;;;;;;21.06;27.17;98530.29;104405;1274;73577;-26
2022/05/03 10:45:03;;;;;;;5.60;1.90;;;;;;;20.63;28.07;98529.84;104650;1274;75050;-26
2022/05/03 10:47:52;;;;;;;4.60;2.30;;;;;;;20.16;27.81;98525.71;104237;1274;74398;-26
2022/05/03 10:50:30;;;;;;;4.40;2.10;;;;;;;19.86;28.05;98522.05;104685;1277;62057;-26
2022/05/03 10:53:07;;;;;;;2.00;1.70;;;;;;;19.94;27.93;98522.11;104695;1274;61252;-27
2022/05/03 10:55:37;;;;;;;3.90;1.70;;;;;;;19.94;28.30;98516.88;104654;1274;74707;-27
2022/05/03 10:58:15;;;;;;;3.70;2.10;;;;;;;19.65;28.10;98514.69;104531;1274;75223;-26
2022/05/03 11:01:24;;;;;;;2.10;1.20;;;;;;;19.66;26.87;98512.45;104608;1277;74332;-26
2022/05/03 11:03:54;;;;;;;2.40;1.90;;;;;;;19.55;27.53;98510.98;104721;1274;61131;-26
2022/05/03 11:06:22;;;;;;;33.20;2.90;;;;;;;19.13;29.92;98510.52;104682;1275;61105;-26
2022/05/03 11:11:42;;;;;;;4.40;2.00;;;;;;;19.55;30.00;98507.28;104625;1274;76211;-26
2022/05/03 11:14:21;;;;;;;2.40;1.80;;;;;;;20.11;28.54;98506.87;104768;1274;74189;-26
2022/05/03 11:17:12;;;;;;;7.40;2.20;;;;;;;20.63;26.47;98505.43;104644;1275;61344;-26
2022/05/03 11:19:46;;;;;;;3.50;1.90;;;;;;;21.24;25.97;98500.56;104752;1274;61089;-26
2022/05/03 11:22:15;;;;;;;1.90;1.70;;;;;;;21.58;24.65;98497.64;104635;1275;74799;-26
2022/05/03 11:24:45;;;;;;;3.60;1.90;;;;;;;21.67;24.37;98500.59;104412;1274;76035;-26
2022/05/03 11:27:14;;;;;;;3.00;1.70;;;;;;;21.59;22.32;98494.98;104494;1275;72324;-26
2022/05/03 11:29:43;;;;;;;2.20;1.30;;;;;;;21.36;22.24;98496.20;104622;1277;61157;-26
2022/05/03 11:32:10;;;;;;;3.10;1.70;;;;;;;21.17;23.38;98491.73;104476;1277;61139;-26
2022/05/03 11:34:38;;;;;;;3.80;1.90;;;;;;;21.06;23.67;98492.42;104807;1274;74750;-26
2022/05/03 11:37:07;;;;;;;3.40;1.90;;;;;;;21.06;24.46;98490.10;104841;1274;76136;-26
2022/05/03 11:39:36;;;;;;;2.80;1.90;;;;;;;21.19;24.74;98485.63;104680;1274;74231;-26
2022/05/03 11:42:10;;;;;;;3.10;1.90;;;;;;;21.22;24.61;98481.91;104604;1274;61098;-26
2022/05/03 11:44:43;;;;;;;5.10;2.00;;;;;;;21.11;24.68;98476.85;104612;1277;61127;-26
2022/05/03 11:47:14;;;;;;;2.60;1.90;;;;;;;21.12;26.52;98478.51;104597;1274;74558;-26
2022/05/03 11:49:43;;;;;;;3.30;2.30;;;;;;;21.25;26.08;98478.19;104626;1274;75981;-26
2022/05/03 11:57:49;;;;;;;2.60;1.80;;;;;;;20.66;26.34;98479.55;104684;1274;61157;-26
2022/05/03 12:00:17;;;;;;;2.70;1.80;;;;;;;20.79;27.27;98466.45;104607;1274;77031;-26
2022/05/03 12:02:44;;;;;;;3.60;1.90;;;;;;;20.72;27.44;98469.05;104775;1274;75809;-26
2022/05/03 12:05:14;;;;;;;2.40;1.80;;;;;;;21.03;26.78;98463.75;104627;1274;73240;-26
2022/05/03 12:07:50;;;;;;;3.10;2.00;;;;;;;20.98;26.41;98462.80;104638;1274;61162;-26
2022/05/03 12:10:31;;;;;;;2.60;1.90;;;;;;;20.90;25.52;98466.06;104535;1278;61789;-27
2022/05/03 12:13:06;;;;;;;4.80;2.20;;;;;;;20.80;26.59;98461.95;104707;1277;75494;-27
2022/05/03 12:15:36;;;;;;;2.70;1.90;;;;;;;20.59;26.17;98465.80;104661;1274;75869;-27
2022/05/03 12:18:20;;;;;;;2.90;2.00;;;;;;;20.77;25.72;98460.59;104616;1274;74212;-26
2022/05/03 12:20:49;;;;;;;2.80;2.00;;;;;;;20.97;27.01;98457.02;104552;1274;61014;-27
2022/05/03 12:23:18;;;;;;;4.20;2.60;;;;;;;20.91;27.34;98453.45;104708;1277;61790;-27
2022/05/03 12:25:50;;;;;;;4.60;2.00;;;;;;;20.75;25.78;98451.88;104780;1274;75320;-27